sensor_id;sensor_type;location;lat;lon;timestamp;temperature;humidity
20891;DHT22;10605;52.968;8.844;2022-12-29T00:01:52;9.40;99.90
20891;DHT22;10605;52.968;8.844;2022-12-29T00:04:18;9.40;99.90
20891;DHT22;10605;52.968;8.844;2022-12-29T00:06:46;9.40;99.90
20891;DHT22;10605;52.968;8.844;2022-12-29T00:09:12;9.50;99.90
20891;DHT22;10605;52.968;8.844;2022-12-29T00:11:38;9.40;99.90
20891;DHT22;10605;52.968;8.844;2022-12-29T00:14:04;9.40;99.90
20891;DHT22;10605;52.968;8.844;2022-12-29T00:16:49;9.40;99.90
20891;DHT22;10605;52.968;8.844;2022-12-29T00:19:14;9.50;99.90
20891;DHT22;10605;52.968;8.844;2022-12-29T00:21:59;9.60;99.90
20891;DHT22;10605;52.968;8.844;2022-12-29T00:24:46;9.70;99.90
20891;DHT22;10605;52.968;8.844;2022-12-29T00:27:27;9.70;99.90
20891;DHT22;10605;52.968;8.844;2022-12-29T00:30:17;9.70;99.90
20891;DHT22;10605;52.968;8.844;2022-12-29T00:36:04;9.70;99.90
20891;DHT22;10605;52.968;8.844;2022-12-29T00:38:32;9.70;99.90
20891;DHT22;10605;52.968;8.844;2022-12-29T00:41:19;9.70;99.90
20891;DHT22;10605;52.968;8.844;2022-12-29T00:44:04;9.70;99.90
20891;DHT22;10605;52.968;8.844;2022-12-29T00:46:31;9.70;99.90
20891;DHT22;10605;52.968;8.844;2022-12-29T00:48:57;9.70;99.90
20891;DHT22;10605;52.968;8.844;2022-12-29T00:51:42;9.80;99.90
20891;DHT22;10605;52.968;8.844;2022-12-29T00:54:08;9.80;99.90
20891;DHT22;10605;52.968;8.844;2022-12-29T00:56:34;9.80;99.90
20891;DHT22;10605;52.968;8.844;2022-12-29T00:59:00;9.80;99.90
20891;DHT22;10605;52.968;8.844;2022-12-29T01:01:26;9.80;99.90
20891;DHT22;10605;52.968;8.844;2022-12-29T01:03:52;9.80;99.90
20891;DHT22;10605;52.968;8.844;2022-12-29T01:06:18;9.90;99.90
20891;DHT22;10605;52.968;8.844;2022-12-29T01:08:43;9.90;99.90
20891;DHT22;10605;52.968;8.844;2022-12-29T01:11:11;9.90;99.90
20891;DHT22;10605;52.968;8.844;2022-12-29T01:13:37;9.90;99.90
20891;DHT22;10605;52.968;8.844;2022-12-29T01:16:05;9.90;99.90
20891;DHT22;10605;52.968;8.844;2022-12-29T01:18:31;10.00;99.90
20891;DHT22;10605;52.968;8.844;2022-12-29T01:21:05;10.00;99.90
20891;DHT22;10605;52.968;8.844;2022-12-29T01:23:31;10.00;99.90
20891;DHT22;10605;52.968;8.844;2022-12-29T01:25:57;10.00;99.90
20891;DHT22;10605;52.968;8.844;2022-12-29T01:28:33;10.00;99.90
20891;DHT22;10605;52.968;8.844;2022-12-29T01:31:00;10.00;99.90
20891;DHT22;10605;52.968;8.844;2022-12-29T01:33:26;10.00;99.90
20891;DHT22;10605;52.968;8.844;2022-12-29T01:35:52;10.00;99.90
20891;DHT22;10605;52.968;8.844;2022-12-29T01:38:17;10.00;99.90
20891;DHT22;10605;52.968;8.844;2022-12-29T01:40:47;10.00;99.90
20891;DHT22;10605;52.968;8.844;2022-12-29T01:43:13;10.00;99.90
20891;DHT22;10605;52.968;8.844;2022-12-29T01:45:49;10.00;99.90
20891;DHT22;10605;52.968;8.844;2022-12-29T01:48:17;10.00;99.90
20891;DHT22;10605;52.968;8.844;2022-12-29T01:50:48;10.00;99.90
20891;DHT22;10605;52.968;8.844;2022-12-29T01:53:26;10.10;99.90
20891;DHT22;10605;52.968;8.844;2022-12-29T01:55:57;10.20;99.90
20891;DHT22;10605;52.968;8.844;2022-12-29T01:58:29;10.10;99.90
20891;DHT22;10605;52.968;8.844;2022-12-29T02:00:56;10.20;99.90
20891;DHT22;10605;52.968;8.844;2022-12-29T02:03:23;10.10;99.90
20891;DHT22;10605;52.968;8.844;2022-12-29T02:06:15;10.20;99.90
20891;DHT22;10605;52.968;8.844;2022-12-29T02:08:43;10.20;99.90
20891;DHT22;10605;52.968;8.844;2022-12-29T02:11:11;10.20;99.90
20891;DHT22;10605;52.968;8.844;2022-12-29T02:13:37;10.20;99.90
20891;DHT22;10605;52.968;8.844;2022-12-29T02:16:10;10.20;99.90
20891;DHT22;10605;52.968;8.844;2022-12-29T02:37:41;10.30;99.90
20891;DHT22;10605;52.968;8.844;2022-12-29T02:40:48;10.30;99.90
20891;DHT22;10605;52.968;8.844;2022-12-29T02:43:26;10.40;99.90
20891;DHT22;10605;52.968;8.844;2022-12-29T02:46:19;10.40;99.90
20891;DHT22;10605;52.968;8.844;2022-12-29T02:48:46;10.40;99.90
20891;DHT22;10605;52.968;8.844;2022-12-29T02:51:21;10.40;99.90
20891;DHT22;10605;52.968;8.844;2022-12-29T02:53:50;10.40;99.90
20891;DHT22;10605;52.968;8.844;2022-12-29T02:56:36;10.50;99.90
20891;DHT22;10605;52.968;8.844;2022-12-29T02:59:02;10.40;99.90
20891;DHT22;10605;52.968;8.844;2022-12-29T03:05:26;10.50;99.90
20891;DHT22;10605;52.968;8.844;2022-12-29T03:07:44;10.60;99.90
20891;DHT22;10605;52.968;8.844;2022-12-29T03:13:12;10.50;99.90
20891;DHT22;10605;52.968;8.844;2022-12-29T03:16:30;10.60;99.90
20891;DHT22;10605;52.968;8.844;2022-12-29T03:19:05;10.50;99.90
20891;DHT22;10605;52.968;8.844;2022-12-29T03:21:39;10.50;99.90
20891;DHT22;10605;52.968;8.844;2022-12-29T03:24:29;10.50;99.90
20891;DHT22;10605;52.968;8.844;2022-12-29T03:26:59;10.50;99.90
20891;DHT22;10605;52.968;8.844;2022-12-29T03:29:27;10.40;99.90
20891;DHT22;10605;52.968;8.844;2022-12-29T03:31:55;10.50;99.90
20891;DHT22;10605;52.968;8.844;2022-12-29T03:34:22;10.40;99.90
20891;DHT22;10605;52.968;8.844;2022-12-29T03:36:58;10.40;99.90
20891;DHT22;10605;52.968;8.844;2022-12-29T03:39:25;10.40;99.90
20891;DHT22;10605;52.968;8.844;2022-12-29T03:41:57;10.40;99.90
20891;DHT22;10605;52.968;8.844;2022-12-29T03:44:42;10.40;99.90
20891;DHT22;10605;52.968;8.844;2022-12-29T03:47:10;10.40;99.90
20891;DHT22;10605;52.968;8.844;2022-12-29T03:49:37;10.40;99.90
20891;DHT22;10605;52.968;8.844;2022-12-29T03:52:03;10.30;99.90
20891;DHT22;10605;52.968;8.844;2022-12-29T03:54:29;10.30;99.90
20891;DHT22;10605;52.968;8.844;2022-12-29T03:56:55;10.30;99.90
20891;DHT22;10605;52.968;8.844;2022-12-29T03:59:21;10.30;99.90
20891;DHT22;10605;52.968;8.844;2022-12-29T04:01:46;10.30;99.90
20891;DHT22;10605;52.968;8.844;2022-12-29T04:04:12;10.30;99.90
20891;DHT22;10605;52.968;8.844;2022-12-29T04:06:38;10.30;99.90
20891;DHT22;10605;52.968;8.844;2022-12-29T04:09:04;10.30;99.90
20891;DHT22;10605;52.968;8.844;2022-12-29T04:11:29;10.30;99.90
20891;DHT22;10605;52.968;8.844;2022-12-29T04:13:55;10.30;99.90
20891;DHT22;10605;52.968;8.844;2022-12-29T04:16:23;10.30;99.90
20891;DHT22;10605;52.968;8.844;2022-12-29T04:18:49;10.30;99.90
20891;DHT22;10605;52.968;8.844;2022-12-29T04:21:17;10.30;99.90
20891;DHT22;10605;52.968;8.844;2022-12-29T04:23:42;10.30;99.90
20891;DHT22;10605;52.968;8.844;2022-12-29T04:26:08;10.30;99.90
20891;DHT22;10605;52.968;8.844;2022-12-29T04:28:35;10.30;99.90
20891;DHT22;10605;52.968;8.844;2022-12-29T04:31:02;10.30;99.90
20891;DHT22;10605;52.968;8.844;2022-12-29T04:33:30;10.30;99.90
20891;DHT22;10605;52.968;8.844;2022-12-29T04:35:56;10.30;99.90
20891;DHT22;10605;52.968;8.844;2022-12-29T04:38:22;10.30;99.90
20891;DHT22;10605;52.968;8.844;2022-12-29T04:40:49;10.40;99.90
20891;DHT22;10605;52.968;8.844;2022-12-29T04:43:15;10.40;99.90
20891;DHT22;10605;52.968;8.844;2022-12-29T04:45:46;10.50;99.90
20891;DHT22;10605;52.968;8.844;2022-12-29T04:48:13;10.50;99.90
20891;DHT22;10605;52.968;8.844;2022-12-29T04:50:39;10.50;99.90
20891;DHT22;10605;52.968;8.844;2022-12-29T04:53:06;10.50;99.90
20891;DHT22;10605;52.968;8.844;2022-12-29T04:55:32;10.50;99.90
20891;DHT22;10605;52.968;8.844;2022-12-29T04:57:58;10.50;99.90
20891;DHT22;10605;52.968;8.844;2022-12-29T05:00:23;10.60;99.90
20891;DHT22;10605;52.968;8.844;2022-12-29T05:02:50;10.60;99.90
20891;DHT22;10605;52.968;8.844;2022-12-29T05:05:16;10.50;99.90
20891;DHT22;10605;52.968;8.844;2022-12-29T05:07:42;10.50;99.90
20891;DHT22;10605;52.968;8.844;2022-12-29T05:10:10;10.50;99.90
20891;DHT22;10605;52.968;8.844;2022-12-29T05:12:37;10.40;99.90
20891;DHT22;10605;52.968;8.844;2022-12-29T05:15:04;10.40;99.90
20891;DHT22;10605;52.968;8.844;2022-12-29T05:17:30;10.30;99.90
20891;DHT22;10605;52.968;8.844;2022-12-29T05:19:56;10.30;99.90
20891;DHT22;10605;52.968;8.844;2022-12-29T05:22:21;10.30;99.90
20891;DHT22;10605;52.968;8.844;2022-12-29T05:24:47;10.20;99.90
20891;DHT22;10605;52.968;8.844;2022-12-29T05:27:13;10.30;99.90
20891;DHT22;10605;52.968;8.844;2022-12-29T05:29:38;10.30;99.90
20891;DHT22;10605;52.968;8.844;2022-12-29T05:32:04;10.50;99.90
20891;DHT22;10605;52.968;8.844;2022-12-29T05:34:30;10.50;99.90
20891;DHT22;10605;52.968;8.844;2022-12-29T05:36:55;10.50;99.90
20891;DHT22;10605;52.968;8.844;2022-12-29T05:39:21;10.60;99.90
20891;DHT22;10605;52.968;8.844;2022-12-29T05:41:47;10.60;99.90
20891;DHT22;10605;52.968;8.844;2022-12-29T05:44:12;10.60;99.90
20891;DHT22;10605;52.968;8.844;2022-12-29T05:46:38;10.60;99.90
20891;DHT22;10605;52.968;8.844;2022-12-29T05:49:05;10.60;99.90
20891;DHT22;10605;52.968;8.844;2022-12-29T05:51:31;10.60;99.90
20891;DHT22;10605;52.968;8.844;2022-12-29T05:53:56;10.60;99.90
20891;DHT22;10605;52.968;8.844;2022-12-29T05:56:23;10.60;99.90
20891;DHT22;10605;52.968;8.844;2022-12-29T05:58:48;10.60;99.90
20891;DHT22;10605;52.968;8.844;2022-12-29T06:01:14;10.70;99.90
20891;DHT22;10605;52.968;8.844;2022-12-29T06:03:40;10.70;99.90
20891;DHT22;10605;52.968;8.844;2022-12-29T06:06:06;10.70;99.90
20891;DHT22;10605;52.968;8.844;2022-12-29T06:08:34;10.60;99.90
20891;DHT22;10605;52.968;8.844;2022-12-29T06:11:00;10.60;99.90
20891;DHT22;10605;52.968;8.844;2022-12-29T06:13:26;10.50;99.90
20891;DHT22;10605;52.968;8.844;2022-12-29T06:15:53;10.50;99.90
20891;DHT22;10605;52.968;8.844;2022-12-29T06:18:18;10.40;99.90
20891;DHT22;10605;52.968;8.844;2022-12-29T06:20:44;10.40;99.90
20891;DHT22;10605;52.968;8.844;2022-12-29T06:23:10;10.30;99.90
20891;DHT22;10605;52.968;8.844;2022-12-29T06:25:37;10.30;99.90
20891;DHT22;10605;52.968;8.844;2022-12-29T06:28:03;10.30;99.90
20891;DHT22;10605;52.968;8.844;2022-12-29T06:30:30;10.30;99.90
20891;DHT22;10605;52.968;8.844;2022-12-29T06:33:05;10.30;99.90
20891;DHT22;10605;52.968;8.844;2022-12-29T06:35:33;10.40;99.90
20891;DHT22;10605;52.968;8.844;2022-12-29T06:38:01;10.40;99.90
20891;DHT22;10605;52.968;8.844;2022-12-29T06:40:27;10.40;99.90
20891;DHT22;10605;52.968;8.844;2022-12-29T06:42:52;10.40;99.90
20891;DHT22;10605;52.968;8.844;2022-12-29T06:45:18;10.40;99.90
20891;DHT22;10605;52.968;8.844;2022-12-29T06:47:44;10.40;99.90
20891;DHT22;10605;52.968;8.844;2022-12-29T06:50:09;10.30;99.90
20891;DHT22;10605;52.968;8.844;2022-12-29T06:52:35;10.30;99.90
20891;DHT22;10605;52.968;8.844;2022-12-29T06:55:01;10.30;99.90
20891;DHT22;10605;52.968;8.844;2022-12-29T06:57:26;10.30;99.90
20891;DHT22;10605;52.968;8.844;2022-12-29T06:59:52;10.30;99.90
20891;DHT22;10605;52.968;8.844;2022-12-29T07:02:21;10.20;99.90
20891;DHT22;10605;52.968;8.844;2022-12-29T07:04:47;10.10;99.90
20891;DHT22;10605;52.968;8.844;2022-12-29T07:07:12;10.10;99.90
20891;DHT22;10605;52.968;8.844;2022-12-29T07:09:38;10.10;99.90
20891;DHT22;10605;52.968;8.844;2022-12-29T07:12:04;10.10;99.90
20891;DHT22;10605;52.968;8.844;2022-12-29T07:14:30;10.00;99.90
20891;DHT22;10605;52.968;8.844;2022-12-29T07:16:55;10.00;99.90
20891;DHT22;10605;52.968;8.844;2022-12-29T07:19:21;10.00;99.90
20891;DHT22;10605;52.968;8.844;2022-12-29T07:21:47;10.00;99.90
20891;DHT22;10605;52.968;8.844;2022-12-29T07:24:12;10.00;99.90
20891;DHT22;10605;52.968;8.844;2022-12-29T07:26:38;9.90;99.90
20891;DHT22;10605;52.968;8.844;2022-12-29T07:29:04;9.90;99.90
20891;DHT22;10605;52.968;8.844;2022-12-29T07:31:30;9.90;99.90
20891;DHT22;10605;52.968;8.844;2022-12-29T07:33:56;9.80;99.90
20891;DHT22;10605;52.968;8.844;2022-12-29T07:36:22;9.90;99.90
20891;DHT22;10605;52.968;8.844;2022-12-29T07:38:47;9.90;99.90
20891;DHT22;10605;52.968;8.844;2022-12-29T07:41:13;9.90;99.90
20891;DHT22;10605;52.968;8.844;2022-12-29T07:43:39;9.90;99.90
20891;DHT22;10605;52.968;8.844;2022-12-29T07:46:12;9.90;99.90
20891;DHT22;10605;52.968;8.844;2022-12-29T07:48:38;9.90;99.90
20891;DHT22;10605;52.968;8.844;2022-12-29T07:51:03;9.90;99.90
20891;DHT22;10605;52.968;8.844;2022-12-29T07:53:29;9.90;99.90
20891;DHT22;10605;52.968;8.844;2022-12-29T07:55:55;9.90;99.90
20891;DHT22;10605;52.968;8.844;2022-12-29T07:58:21;9.90;99.90
20891;DHT22;10605;52.968;8.844;2022-12-29T08:00:47;9.90;99.90
20891;DHT22;10605;52.968;8.844;2022-12-29T08:03:12;9.80;99.90
20891;DHT22;10605;52.968;8.844;2022-12-29T08:05:38;9.80;99.90
20891;DHT22;10605;52.968;8.844;2022-12-29T08:08:04;9.80;99.90
20891;DHT22;10605;52.968;8.844;2022-12-29T08:10:30;9.70;99.90
20891;DHT22;10605;52.968;8.844;2022-12-29T08:12:55;9.70;99.90
20891;DHT22;10605;52.968;8.844;2022-12-29T08:15:21;9.70;99.90
20891;DHT22;10605;52.968;8.844;2022-12-29T08:21:11;9.50;99.90
20891;DHT22;10605;52.968;8.844;2022-12-29T08:23:39;9.70;99.90
20891;DHT22;10605;52.968;8.844;2022-12-29T08:26:05;9.80;99.90
20891;DHT22;10605;52.968;8.844;2022-12-29T08:28:31;9.90;99.90
20891;DHT22;10605;52.968;8.844;2022-12-29T08:30:59;9.80;99.90
20891;DHT22;10605;52.968;8.844;2022-12-29T08:33:25;9.80;99.90
20891;DHT22;10605;52.968;8.844;2022-12-29T08:35:51;9.80;99.90
20891;DHT22;10605;52.968;8.844;2022-12-29T08:38:16;9.90;99.90
20891;DHT22;10605;52.968;8.844;2022-12-29T08:40:43;9.90;99.90
20891;DHT22;10605;52.968;8.844;2022-12-29T08:43:16;9.90;99.90
20891;DHT22;10605;52.968;8.844;2022-12-29T08:45:42;10.00;99.90
20891;DHT22;10605;52.968;8.844;2022-12-29T08:48:08;10.20;99.90
20891;DHT22;10605;52.968;8.844;2022-12-29T08:50:33;10.30;99.90
20891;DHT22;10605;52.968;8.844;2022-12-29T08:52:59;10.30;99.90
20891;DHT22;10605;52.968;8.844;2022-12-29T08:55:25;10.40;99.90
20891;DHT22;10605;52.968;8.844;2022-12-29T08:58:00;10.50;99.90
20891;DHT22;10605;52.968;8.844;2022-12-29T09:00:26;10.60;99.90
20891;DHT22;10605;52.968;8.844;2022-12-29T09:02:51;10.70;99.90
20891;DHT22;10605;52.968;8.844;2022-12-29T09:05:20;10.70;99.90
20891;DHT22;10605;52.968;8.844;2022-12-29T09:07:46;10.80;99.90
20891;DHT22;10605;52.968;8.844;2022-12-29T09:10:11;11.00;99.90
20891;DHT22;10605;52.968;8.844;2022-12-29T09:12:37;11.10;99.90
20891;DHT22;10605;52.968;8.844;2022-12-29T09:15:06;11.40;99.90
20891;DHT22;10605;52.968;8.844;2022-12-29T09:17:32;11.50;99.90
20891;DHT22;10605;52.968;8.844;2022-12-29T09:20:12;11.50;99.90
20891;DHT22;10605;52.968;8.844;2022-12-29T09:22:38;11.60;99.90
20891;DHT22;10605;52.968;8.844;2022-12-29T09:25:04;11.60;99.90
20891;DHT22;10605;52.968;8.844;2022-12-29T09:27:29;11.50;99.90
20891;DHT22;10605;52.968;8.844;2022-12-29T09:29:55;11.30;99.90
20891;DHT22;10605;52.968;8.844;2022-12-29T09:32:21;11.40;99.90
20891;DHT22;10605;52.968;8.844;2022-12-29T09:34:47;11.90;99.90
20891;DHT22;10605;52.968;8.844;2022-12-29T09:37:13;11.50;99.90
20891;DHT22;10605;52.968;8.844;2022-12-29T09:39:38;11.50;99.90
20891;DHT22;10605;52.968;8.844;2022-12-29T09:47:13;11.80;99.90
20891;DHT22;10605;52.968;8.844;2022-12-29T09:49:58;11.90;99.90
20891;DHT22;10605;52.968;8.844;2022-12-29T09:52:32;12.10;99.90
20891;DHT22;10605;52.968;8.844;2022-12-29T09:55:12;12.10;99.90
20891;DHT22;10605;52.968;8.844;2022-12-29T09:57:58;11.80;99.90
20891;DHT22;10605;52.968;8.844;2022-12-29T10:00:47;11.30;99.90
20891;DHT22;10605;52.968;8.844;2022-12-29T10:03:16;10.90;99.90
20891;DHT22;10605;52.968;8.844;2022-12-29T10:06:06;10.70;99.90
20891;DHT22;10605;52.968;8.844;2022-12-29T10:08:39;10.50;99.90
20891;DHT22;10605;52.968;8.844;2022-12-29T10:16:25;10.50;99.90
20891;DHT22;10605;52.968;8.844;2022-12-29T10:24:13;10.00;99.90
20891;DHT22;10605;52.968;8.844;2022-12-29T10:26:42;9.90;99.90
20891;DHT22;10605;52.968;8.844;2022-12-29T10:29:28;10.00;99.90
20891;DHT22;10605;52.968;8.844;2022-12-29T10:32:04;10.30;99.90
20891;DHT22;10605;52.968;8.844;2022-12-29T10:34:38;10.40;99.90
20891;DHT22;10605;52.968;8.844;2022-12-29T10:37:39;10.60;99.90
20891;DHT22;10605;52.968;8.844;2022-12-29T10:45:43;10.70;99.90
20891;DHT22;10605;52.968;8.844;2022-12-29T10:48:17;11.00;99.90
20891;DHT22;10605;52.968;8.844;2022-12-29T10:50:45;11.20;99.90
20891;DHT22;10605;52.968;8.844;2022-12-29T10:53:19;11.20;99.90
20891;DHT22;10605;52.968;8.844;2022-12-29T10:55:47;11.10;99.90
20891;DHT22;10605;52.968;8.844;2022-12-29T10:58:16;11.20;99.90
20891;DHT22;10605;52.968;8.844;2022-12-29T11:00:43;11.00;99.90
20891;DHT22;10605;52.968;8.844;2022-12-29T11:06:00;11.00;99.90
20891;DHT22;10605;52.968;8.844;2022-12-29T11:08:35;11.10;99.90
20891;DHT22;10605;52.968;8.844;2022-12-29T11:11:06;11.30;99.90
20891;DHT22;10605;52.968;8.844;2022-12-29T11:13:34;11.30;99.90
20891;DHT22;10605;52.968;8.844;2022-12-29T11:16:01;11.50;99.90
20891;DHT22;10605;52.968;8.844;2022-12-29T11:18:37;11.50;99.90
20891;DHT22;10605;52.968;8.844;2022-12-29T11:21:10;11.40;99.90
20891;DHT22;10605;52.968;8.844;2022-12-29T11:24:02;11.30;99.90
20891;DHT22;10605;52.968;8.844;2022-12-29T11:26:30;11.20;99.90
20891;DHT22;10605;52.968;8.844;2022-12-29T11:31:57;11.10;99.90
20891;DHT22;10605;52.968;8.844;2022-12-29T11:34:32;11.20;99.90
20891;DHT22;10605;52.968;8.844;2022-12-29T11:37:05;11.10;99.90
20891;DHT22;10605;52.968;8.844;2022-12-29T11:39:39;11.10;99.90
20891;DHT22;10605;52.968;8.844;2022-12-29T11:42:14;11.00;99.90
20891;DHT22;10605;52.968;8.844;2022-12-29T11:44:44;11.00;99.90
20891;DHT22;10605;52.968;8.844;2022-12-29T11:47:20;11.00;99.90
20891;DHT22;10605;52.968;8.844;2022-12-29T11:49:54;11.00;99.90
20891;DHT22;10605;52.968;8.844;2022-12-29T11:52:26;11.00;99.90
20891;DHT22;10605;52.968;8.844;2022-12-29T11:54:54;11.10;99.90
20891;DHT22;10605;52.968;8.844;2022-12-29T11:57:22;11.00;99.90
20891;DHT22;10605;52.968;8.844;2022-12-29T11:59:55;11.00;99.90
20891;DHT22;10605;52.968;8.844;2022-12-29T12:02:36;11.10;99.90
20891;DHT22;10605;52.968;8.844;2022-12-29T12:05:14;11.20;99.90
20891;DHT22;10605;52.968;8.844;2022-12-29T12:07:46;11.10;99.90
20891;DHT22;10605;52.968;8.844;2022-12-29T12:10:39;11.00;99.90
20891;DHT22;10605;52.968;8.844;2022-12-29T12:13:24;10.90;99.90
20891;DHT22;10605;52.968;8.844;2022-12-29T12:15:59;10.90;99.90
20891;DHT22;10605;52.968;8.844;2022-12-29T12:18:47;10.90;99.90
20891;DHT22;10605;52.968;8.844;2022-12-29T12:24:26;11.00;99.90
20891;DHT22;10605;52.968;8.844;2022-12-29T12:27:12;11.00;99.90
20891;DHT22;10605;52.968;8.844;2022-12-29T12:35:15;10.90;99.90
20891;DHT22;10605;52.968;8.844;2022-12-29T12:40:46;10.80;99.90
20891;DHT22;10605;52.968;8.844;2022-12-29T12:43:39;10.90;99.90
20891;DHT22;10605;52.968;8.844;2022-12-29T12:49:16;10.90;99.90
20891;DHT22;10605;52.968;8.844;2022-12-29T13:07:54;10.90;99.90
20891;DHT22;10605;52.968;8.844;2022-12-29T13:10:57;10.90;99.90
20891;DHT22;10605;52.968;8.844;2022-12-29T13:27:30;10.50;99.90
20891;DHT22;10605;52.968;8.844;2022-12-29T13:30:08;10.30;99.90
20891;DHT22;10605;52.968;8.844;2022-12-29T13:35:28;10.10;99.90
20891;DHT22;10605;52.968;8.844;2022-12-29T13:37:55;10.00;99.90
20891;DHT22;10605;52.968;8.844;2022-12-29T13:40:27;10.00;99.90
20891;DHT22;10605;52.968;8.844;2022-12-29T13:42:55;9.80;99.90
20891;DHT22;10605;52.968;8.844;2022-12-29T13:45:24;9.70;99.90
20891;DHT22;10605;52.968;8.844;2022-12-29T13:47:59;9.80;99.90
20891;DHT22;10605;52.968;8.844;2022-12-29T13:50:29;9.80;99.90
20891;DHT22;10605;52.968;8.844;2022-12-29T13:56:12;9.70;99.90
20891;DHT22;10605;52.968;8.844;2022-12-29T13:58:57;9.70;99.90
20891;DHT22;10605;52.968;8.844;2022-12-29T14:02:01;9.80;99.90
20891;DHT22;10605;52.968;8.844;2022-12-29T14:04:30;9.80;99.90
20891;DHT22;10605;52.968;8.844;2022-12-29T14:07:15;9.70;99.90
20891;DHT22;10605;52.968;8.844;2022-12-29T14:14:46;9.50;99.90
20891;DHT22;10605;52.968;8.844;2022-12-29T14:17:16;9.40;99.90
20891;DHT22;10605;52.968;8.844;2022-12-29T14:19:44;9.40;99.90
20891;DHT22;10605;52.968;8.844;2022-12-29T14:22:11;9.30;99.90
20891;DHT22;10605;52.968;8.844;2022-12-29T14:24:44;9.30;99.90
20891;DHT22;10605;52.968;8.844;2022-12-29T14:40:45;9.20;99.90
20891;DHT22;10605;52.968;8.844;2022-12-29T14:43:34;9.20;99.90
20891;DHT22;10605;52.968;8.844;2022-12-29T14:46:01;9.20;99.90
20891;DHT22;10605;52.968;8.844;2022-12-29T14:48:34;9.20;99.90
20891;DHT22;10605;52.968;8.844;2022-12-29T14:51:01;9.10;99.90
20891;DHT22;10605;52.968;8.844;2022-12-29T14:53:47;9.10;99.90
20891;DHT22;10605;52.968;8.844;2022-12-29T14:56:15;9.10;99.90
20891;DHT22;10605;52.968;8.844;2022-12-29T14:58:51;9.10;99.90
20891;DHT22;10605;52.968;8.844;2022-12-29T15:03:57;9.20;99.90
20891;DHT22;10605;52.968;8.844;2022-12-29T15:06:25;9.20;99.90
20891;DHT22;10605;52.968;8.844;2022-12-29T15:11:49;9.20;99.90
20891;DHT22;10605;52.968;8.844;2022-12-29T15:14:37;9.10;99.90
20891;DHT22;10605;52.968;8.844;2022-12-29T15:17:21;9.20;99.90
20891;DHT22;10605;52.968;8.844;2022-12-29T15:19:48;9.20;99.90
20891;DHT22;10605;52.968;8.844;2022-12-29T15:22:14;9.20;99.90
20891;DHT22;10605;52.968;8.844;2022-12-29T15:24:43;9.20;99.90
20891;DHT22;10605;52.968;8.844;2022-12-29T15:27:20;9.20;99.90
20891;DHT22;10605;52.968;8.844;2022-12-29T15:29:46;9.20;99.90
20891;DHT22;10605;52.968;8.844;2022-12-29T15:34:44;9.20;99.90
20891;DHT22;10605;52.968;8.844;2022-12-29T15:37:18;9.20;99.90
20891;DHT22;10605;52.968;8.844;2022-12-29T15:39:44;9.10;99.90
20891;DHT22;10605;52.968;8.844;2022-12-29T15:42:29;9.10;99.90
20891;DHT22;10605;52.968;8.844;2022-12-29T15:44:57;9.00;99.90
20891;DHT22;10605;52.968;8.844;2022-12-29T15:47:29;9.00;99.90
20891;DHT22;10605;52.968;8.844;2022-12-29T15:53:03;8.80;99.90
20891;DHT22;10605;52.968;8.844;2022-12-29T15:55:37;8.70;99.90
20891;DHT22;10605;52.968;8.844;2022-12-29T15:58:19;8.70;99.90
20891;DHT22;10605;52.968;8.844;2022-12-29T16:00:55;8.80;99.90
20891;DHT22;10605;52.968;8.844;2022-12-29T16:03:22;8.70;99.90
20891;DHT22;10605;52.968;8.844;2022-12-29T16:05:53;8.70;99.90
20891;DHT22;10605;52.968;8.844;2022-12-29T16:08:39;8.70;99.90
20891;DHT22;10605;52.968;8.844;2022-12-29T16:11:37;8.80;99.90
20891;DHT22;10605;52.968;8.844;2022-12-29T16:14:19;8.80;99.90
20891;DHT22;10605;52.968;8.844;2022-12-29T16:16:47;8.80;99.90
20891;DHT22;10605;52.968;8.844;2022-12-29T16:19:19;8.80;99.90
20891;DHT22;10605;52.968;8.844;2022-12-29T16:21:47;8.80;99.90
20891;DHT22;10605;52.968;8.844;2022-12-29T16:24:19;8.80;99.90
20891;DHT22;10605;52.968;8.844;2022-12-29T16:26:58;8.90;99.90
20891;DHT22;10605;52.968;8.844;2022-12-29T16:29:25;8.90;99.90
20891;DHT22;10605;52.968;8.844;2022-12-29T16:31:56;8.90;99.90
20891;DHT22;10605;52.968;8.844;2022-12-29T16:39:48;9.00;99.90
20891;DHT22;10605;52.968;8.844;2022-12-29T16:47:45;8.90;99.90
20891;DHT22;10605;52.968;8.844;2022-12-29T16:50:18;8.90;99.90
20891;DHT22;10605;52.968;8.844;2022-12-29T16:52:55;8.80;99.90
20891;DHT22;10605;52.968;8.844;2022-12-29T16:56:26;8.90;99.90
20891;DHT22;10605;52.968;8.844;2022-12-29T16:59:06;8.90;99.90
20891;DHT22;10605;52.968;8.844;2022-12-29T17:01:38;8.90;99.90
20891;DHT22;10605;52.968;8.844;2022-12-29T17:04:11;8.80;99.90
20891;DHT22;10605;52.968;8.844;2022-12-29T17:06:37;8.90;99.90
20891;DHT22;10605;52.968;8.844;2022-12-29T17:09:20;8.90;99.90
20891;DHT22;10605;52.968;8.844;2022-12-29T17:11:59;8.90;99.90
20891;DHT22;10605;52.968;8.844;2022-12-29T17:14:55;9.00;99.90
20891;DHT22;10605;52.968;8.844;2022-12-29T17:17:44;8.90;99.90
20891;DHT22;10605;52.968;8.844;2022-12-29T17:20:31;8.90;99.90
20891;DHT22;10605;52.968;8.844;2022-12-29T17:23:04;8.90;99.90
20891;DHT22;10605;52.968;8.844;2022-12-29T17:25:35;8.90;99.90
20891;DHT22;10605;52.968;8.844;2022-12-29T17:28:31;8.90;99.90
20891;DHT22;10605;52.968;8.844;2022-12-29T17:31:01;8.90;99.90
20891;DHT22;10605;52.968;8.844;2022-12-29T17:33:30;8.90;99.90
20891;DHT22;10605;52.968;8.844;2022-12-29T17:36:01;8.90;99.90
20891;DHT22;10605;52.968;8.844;2022-12-29T17:38:42;9.00;99.90
20891;DHT22;10605;52.968;8.844;2022-12-29T17:41:14;9.10;99.90
20891;DHT22;10605;52.968;8.844;2022-12-29T17:43:40;9.10;99.90
20891;DHT22;10605;52.968;8.844;2022-12-29T17:46:06;9.00;99.90
20891;DHT22;10605;52.968;8.844;2022-12-29T17:48:33;9.10;99.90
20891;DHT22;10605;52.968;8.844;2022-12-29T17:50:59;9.10;99.90
20891;DHT22;10605;52.968;8.844;2022-12-29T17:53:27;9.10;99.90
20891;DHT22;10605;52.968;8.844;2022-12-29T17:55:56;9.00;99.90
20891;DHT22;10605;52.968;8.844;2022-12-29T17:58:26;9.10;99.90
20891;DHT22;10605;52.968;8.844;2022-12-29T18:00:56;9.10;99.90
20891;DHT22;10605;52.968;8.844;2022-12-29T18:05:54;9.10;99.90
20891;DHT22;10605;52.968;8.844;2022-12-29T18:08:20;9.10;99.90
20891;DHT22;10605;52.968;8.844;2022-12-29T18:10:46;9.20;99.90
20891;DHT22;10605;52.968;8.844;2022-12-29T18:13:26;9.10;99.90
20891;DHT22;10605;52.968;8.844;2022-12-29T18:15:53;9.10;99.90
20891;DHT22;10605;52.968;8.844;2022-12-29T18:18:23;9.10;99.90
20891;DHT22;10605;52.968;8.844;2022-12-29T18:20:51;9.10;99.90
20891;DHT22;10605;52.968;8.844;2022-12-29T18:23:28;9.10;99.90
20891;DHT22;10605;52.968;8.844;2022-12-29T18:26:11;9.00;99.90
20891;DHT22;10605;52.968;8.844;2022-12-29T18:28:40;8.90;99.90
20891;DHT22;10605;52.968;8.844;2022-12-29T18:31:15;8.80;99.90
20891;DHT22;10605;52.968;8.844;2022-12-29T18:33:41;8.70;99.90
20891;DHT22;10605;52.968;8.844;2022-12-29T18:36:10;8.60;99.90